Terminal Aerodrome Forecast
Issued by NWS Twin Cities, MN

Home | Current Version | Previous Version | Graphics & Text | Print | Product List | Glossary On
Versions: 1 2 3 4 5 6 7 8 9 10 11 12 13 14 15 16 17 18
000
FTUS43 KMPX 200500
TAFSTC
TAF
KSTC 200525Z 2006/2106 00000KT 2SM BR SCT250
      TEMPO 2006/2009 1/2SM FG SCT001
     FM200900 00000KT 3/4SM BR SCT001
      TEMPO 2009/2013 1/4SM FG VV001
     FM201330 05003KT P6SM FEW002
      TEMPO 2014/2015 5SM BR
     FM201500 07004KT P6SM SCT250=

USA.gov is the U.S. government's official web portal to all federal, state and local government web resources and services.